Time;durP1;ratioP1;P1;durP2;ratioP2;P2;SDS_P1;SDS_P2;PMS_P1;PMS_P2;Temp;Humidity;BMP_temperature;BMP_pressure;BME280_temperature;BME280_humidity;BME280_pressure;Samples;Min_cycle;Max_cycle;Signal;HPM_P1;HPM_P2
2021/03/26 00:01:10;;;;;;;15.40;11.60;;;14.30;96.10;;;14.95;48.47;101605.06;4957581;27;98562;-48
2021/03/26 00:03:40;;;;;;;14.40;12.20;;;14.20;96.50;;;14.99;47.98;101609.31;4969891;28;99309;-49
2021/03/26 00:06:15;;;;;;;10.77;8.57;;;14.30;96.40;;;15.01;47.73;101606.59;4960309;27;98087;-48
2021/03/26 00:08:41;;;;;;;9.07;6.77;;;14.30;96.30;;;14.97;47.89;101605.84;4971863;27;101327;-50
2021/03/26 00:11:07;;;;;;;9.63;8.63;;;14.30;96.60;;;15.00;48.11;101595.09;4947259;27;98812;-48
2021/03/26 00:13:34;;;;;;;14.53;11.30;;;14.30;96.30;;;14.97;48.57;101595.22;4944942;28;101234;-48
2021/03/26 00:16:01;;;;;;;11.63;10.43;;;14.30;96.30;;;14.97;48.58;101605.84;4959719;28;97710;-48
2021/03/26 00:18:27;;;;;;;14.63;11.97;;;14.30;96.20;;;14.91;48.77;101599.94;4978497;27;97547;-49
2021/03/26 00:20:53;;;;;;;11.37;9.60;;;14.10;96.70;;;14.93;48.25;101603.38;4979387;27;98156;-57
2021/03/26 00:23:20;;;;;;;14.70;11.07;;;14.20;96.60;;;14.94;48.13;101605.97;4957367;28;103398;-48
2021/03/26 00:25:45;;;;;;;15.00;12.43;;;14.20;96.30;;;14.95;47.81;101601.53;4966875;27;98353;-46
2021/03/26 00:28:11;;;;;;;4.90;4.30;;;14.30;95.90;;;14.95;47.97;101596.22;4953777;27;97776;-48
2021/03/26 00:30:38;;;;;;;17.87;12.07;;;14.20;96.10;;;14.91;48.49;101606.09;4966605;28;99872;-49
2021/03/26 00:33:07;;;;;;;14.93;11.47;;;14.20;96.10;;;14.96;48.22;101600.59;4955273;27;99094;-48
2021/03/26 00:35:33;;;;;;;5.77;4.87;;;14.30;95.90;;;14.93;48.08;101601.59;4972422;27;98301;-48
2021/03/26 00:37:59;;;;;;;16.57;12.57;;;14.20;95.80;;;14.94;48.13;101605.13;4960341;27;97891;-48
2021/03/26 00:40:26;;;;;;;10.27;8.03;;;14.30;95.90;;;14.90;48.01;101599.06;4971385;28;96944;-50
2021/03/26 00:42:52;;;;;;;15.40;10.90;;;14.20;95.80;;;14.88;48.19;101595.56;4962919;27;97943;-57
2021/03/26 00:45:25;;;;;;;7.90;6.47;;;14.20;95.80;;;14.90;48.12;101596.41;4961359;27;104706;-51
2021/03/26 00:47:52;;;;;;;7.90;6.67;;;14.20;95.80;;;14.93;47.79;101598.94;4960085;27;97489;-59
2021/03/26 00:50:37;;;;;;;12.00;8.83;;;14.30;95.70;;;14.99;48.01;101593.38;4965392;28;98960;-51
2021/03/26 00:53:30;;;;;;;9.00;6.93;;;14.40;95.40;;;14.99;48.10;101588.06;4954142;27;100252;-55
2021/03/26 00:55:57;;;;;;;15.77;13.73;;;14.40;95.70;;;14.95;48.14;101597.09;4943068;27;100094;-50
2021/03/26 00:58:23;;;;;;;13.13;11.60;;;14.30;95.50;;;14.94;48.16;101590.03;4956278;28;99901;-54
2021/03/26 01:00:51;;;;;;;7.60;6.13;;;14.30;95.60;;;14.95;48.09;101591.78;4954672;28;98870;-50
2021/03/26 01:03:20;;;;;;;4.67;4.03;;;14.20;95.70;;;14.91;48.06;101584.84;4961100;27;97398;-51
2021/03/26 01:05:51;;;;;;;8.53;7.33;;;14.20;95.90;;;14.91;48.04;101584.00;4964652;27;98633;-51
2021/03/26 01:08:19;;;;;;;4.90;4.30;;;14.20;95.40;;;14.88;47.98;101584.94;4961387;28;97946;-49
2021/03/26 01:11:01;;;;;;;4.97;3.70;;;14.10;95.60;;;14.91;47.77;101574.22;4956191;27;101149;-49
2021/03/26 01:13:27;;;;;;;13.87;11.00;;;14.20;95.70;;;14.94;47.74;101578.56;4964086;28;103680;-54
2021/03/26 01:15:53;;;;;;;9.50;8.23;;;14.40;95.20;;;14.94;47.66;101570.59;4969245;27;100763;-57
2021/03/26 01:18:31;;;;;;;5.60;5.10;;;14.30;95.10;;;14.91;47.88;101579.53;4962544;28;97034;-56
2021/03/26 01:20:58;;;;;;;4.57;4.13;;;14.20;95.50;;;14.88;47.93;101563.69;4953393;27;97305;-51
2021/03/26 01:23:26;;;;;;;5.13;4.07;;;14.20;96.00;;;14.92;47.76;101564.47;4963791;28;99572;-55
2021/03/26 01:25:52;;;;;;;5.27;3.83;;;14.30;95.60;;;14.97;47.82;101558.03;4954144;28;99630;-54
2021/03/26 01:28:22;;;;;;;9.40;8.47;;;14.40;94.80;;;15.05;47.60;101561.25;4961636;27;99227;-57
2021/03/26 01:30:48;;;;;;;16.13;13.60;;;14.60;94.20;;;14.98;47.78;101565.06;4963907;28;98327;-54
2021/03/26 01:33:16;;;;;;;15.87;14.17;;;14.40;95.20;;;14.97;47.77;101555.38;4963838;27;98664;-53
2021/03/26 01:35:42;;;;;;;6.03;5.43;;;14.30;95.20;;;14.93;47.61;101567.06;4959224;28;99324;-55
2021/03/26 01:38:08;;;;;;;12.67;11.07;;;14.20;95.20;;;14.93;47.54;101553.78;4959743;28;100159;-55
2021/03/26 01:40:44;;;;;;;16.27;13.97;;;14.20;95.20;;;14.88;47.71;101553.06;4947200;28;97683;-54
2021/03/26 01:43:21;;;;;;;11.47;8.13;;;14.10;95.10;;;14.88;47.81;101548.63;4974599;27;99333;-53
2021/03/26 01:45:49;;;;;;;10.60;9.50;;;14.20;95.20;;;14.84;47.95;101540.84;4958597;28;98076;-49
2021/03/26 01:48:34;;;;;;;7.83;7.03;;;14.10;95.40;;;14.87;48.16;101535.41;4961845;28;97065;-52
2021/03/26 01:51:03;;;;;;;8.23;5.93;;;14.20;95.50;;;14.87;48.09;101540.72;4952710;28;97288;-56
2021/03/26 01:53:29;;;;;;;12.27;9.17;;;14.20;95.20;;;14.87;48.05;101535.41;4962943;28;98756;-59
2021/03/26 01:55:58;;;;;;;6.67;6.00;;;14.20;95.10;;;14.87;47.82;101535.41;4954715;27;98655;-54
2021/03/26 01:58:30;;;;;;;10.10;6.77;;;14.10;95.40;;;14.84;48.04;101535.53;4966192;28;97100;-57
2021/03/26 02:01:05;;;;;;;5.30;4.00;;;14.00;95.50;;;14.80;48.13;101533.94;4972173;27;99356;-53
2021/03/26 02:03:39;;;;;;;9.13;7.77;;;13.90;95.70;;;14.82;48.19;101532.06;4968258;27;97526;-59
2021/03/26 02:06:17;;;;;;;18.10;14.33;;;14.00;95.60;;;14.80;48.25;101544.56;4953155;28;98377;-58
2021/03/26 02:08:44;;;;;;;6.30;5.10;;;14.00;95.30;;;14.77;48.22;101544.69;4950059;28;98585;-55
2021/03/26 02:11:41;;;;;;;5.20;4.60;;;13.90;95.70;;;14.78;48.40;101533.13;4956150;28;97089;-55
2021/03/26 02:14:14;;;;;;;5.07;4.57;;;13.90;96.00;;;14.81;48.12;101535.66;4963198;28;99006;-52
2021/03/26 02:16:41;;;;;;;17.93;16.03;;;14.20;95.60;;;14.81;47.75;101535.66;4940523;28;101430;-55
2021/03/26 02:19:21;;;;;;;5.20;4.70;;;14.10;94.90;;;14.86;48.18;101529.22;4960164;27;97563;-56
2021/03/26 02:21:48;;;;;;;11.20;9.37;;;14.20;95.40;;;14.81;48.10;101522.38;4943915;28;97643;-58
2021/03/26 02:24:13;;;;;;;7.40;5.70;;;14.10;95.30;;;14.86;47.98;101523.91;4957709;28;99501;-50
2021/03/26 02:26:45;;;;;;;19.23;15.83;;;14.20;95.30;;;14.88;47.63;101518.53;4954531;28;97325;-58
2021/03/26 02:29:27;;;;;;;7.13;5.57;;;14.30;95.10;;;14.94;47.62;101515.66;4961639;28;100910;-51
2021/03/26 02:32:22;;;;;;;4.07;3.67;;;14.40;94.90;;;15.15;47.08;101508.59;4953480;28;104252;-56
2021/03/26 02:35:16;;;;;;;7.43;6.07;;;14.70;94.00;;;15.23;47.12;101517.13;4950472;28;102957;-56
2021/03/26 02:38:16;;;;;;;14.43;11.03;;;14.90;93.50;;;15.31;46.96;101525.63;4935785;28;102119;-50
2021/03/26 02:40:51;;;;;;;5.73;5.07;;;15.00;93.50;;;15.30;46.83;101517.72;4977535;27;97761;-49
2021/03/26 02:43:57;;;;;;;19.07;15.10;;;15.00;93.40;;;15.28;46.32;101506.28;4968723;27;102846;-57
2021/03/26 02:46:44;;;;;;;4.40;4.00;;;14.90;93.50;;;15.21;46.87;101511.00;4991621;27;102854;-55
2021/03/26 02:49:25;;;;;;;19.33;17.13;;;14.70;94.30;;;15.15;47.15;101511.25;4964905;27;97763;-57
2021/03/26 02:52:08;;;;;;;19.57;15.17;;;14.50;94.20;;;15.09;47.23;101507.06;4989622;28;97149;-59
2021/03/26 02:54:46;;;;;;;10.17;8.93;;;14.40;94.70;;;15.04;47.31;101506.38;4973081;27;104294;-58
2021/03/26 02:57:35;;;;;;;22.00;15.97;;;14.30;94.80;;;14.99;47.44;101512.81;4995600;27;97695;-48
2021/03/26 03:00:19;;;;;;;18.87;13.70;;;14.20;94.70;;;14.91;47.86;101506.97;4965014;27;97419;-56
2021/03/26 03:02:48;;;;;;;10.60;8.93;;;14.10;95.10;;;14.81;48.04;101509.09;4977394;28;97788;-50
2021/03/26 03:05:44;;;;;;;7.27;6.53;;;13.90;95.20;;;14.76;48.22;101511.09;4966607;28;99552;-48
2021/03/26 03:08:23;;;;;;;10.83;7.77;;;13.80;95.40;;;14.68;48.24;101513.16;4959972;27;98641;-52
2021/03/26 03:10:53;;;;;;;8.83;7.93;;;13.70;95.70;;;14.65;48.53;101513.28;4988155;28;97183;-55
2021/03/26 03:13:46;;;;;;;4.63;4.07;;;13.70;95.90;;;14.72;48.14;101514.75;4976067;28;97625;-52
2021/03/26 03:16:39;;;;;;;8.93;7.30;;;14.00;95.50;;;14.78;48.00;101510.09;4978977;27;97479;-52
2021/03/26 03:19:56;;;;;;;17.77;11.60;;;14.10;95.20;;;14.81;48.17;101504.66;4960539;28;101859;-53
2021/03/26 03:22:39;;;;;;;12.80;10.13;;;14.20;94.90;;;14.89;47.66;101504.34;4982686;28;100711;-56
2021/03/26 03:25:15;;;;;;;4.57;4.10;;;14.40;94.10;;;14.93;47.68;101503.31;4955832;27;98133;-51
2021/03/26 03:27:59;;;;;;;5.13;4.30;;;14.40;94.60;;;14.97;47.75;101510.22;4973224;28;96892;-50
2021/03/26 03:31:01;;;;;;;8.53;7.30;;;14.50;94.60;;;14.99;47.58;101508.34;4961867;27;103021;-53
2021/03/26 03:33:33;;;;;;;6.60;4.90;;;14.50;94.50;;;14.98;47.44;101503.97;4980595;28;100003;-50
2021/03/26 03:36:05;;;;;;;14.23;11.77;;;14.40;94.50;;;14.94;47.24;101510.34;4981011;27;97411;-49
2021/03/26 03:38:56;;;;;;;10.00;7.37;;;14.30;94.40;;;14.89;47.90;101496.38;5006615;27;97573;-50
2021/03/26 03:41:35;;;;;;;6.50;5.70;;;14.10;94.70;;;14.87;47.80;101496.44;4962434;28;100521;-55
2021/03/26 03:44:23;;;;;;;6.43;4.80;;;14.20;94.80;;;14.91;47.92;101499.84;4988873;27;97305;-54
2021/03/26 03:46:53;;;;;;;13.07;11.67;;;14.20;94.70;;;14.86;47.93;101496.50;4982396;28;97105;-55
2021/03/26 03:49:43;;;;;;;21.17;18.37;;;14.20;94.80;;;14.86;48.06;101500.00;4975493;28;99406;-53
2021/03/26 03:52:29;;;;;;;15.73;10.23;;;14.10;94.60;;;14.82;47.96;101505.50;4988809;27;100318;-50
2021/03/26 03:55:15;;;;;;;19.10;16.77;;;14.00;94.80;;;14.74;47.69;101496.97;4980035;28;97151;-49
2021/03/26 03:58:07;;;;;;;6.30;5.67;;;13.80;94.90;;;14.67;48.42;101491.06;4977704;28;98904;-48
2021/03/26 04:01:02;;;;;;;11.17;8.97;;;13.70;95.70;;;14.63;48.47;101489.47;4973858;28;97509;-52
2021/03/26 04:03:52;;;;;;;10.00;9.00;;;13.70;95.50;;;14.62;48.44;101492.16;4944573;28;101697;-51
2021/03/26 04:06:32;;;;;;;23.03;18.47;;;13.80;95.40;;;14.53;48.33;101488.94;4973278;28;103981;-55
2021/03/26 04:09:06;;;;;;;21.47;17.87;;;13.60;95.00;;;14.50;48.80;101494.38;4981011;28;98923;-52
2021/03/26 04:11:44;;;;;;;15.97;13.57;;;13.60;95.80;;;14.44;48.86;101497.25;4980977;28;107009;-49
2021/03/26 04:14:44;;;;;;;15.07;12.47;;;13.50;95.70;;;14.39;48.96;101500.97;4984712;27;97487;-49
2021/03/26 04:17:46;;;;;;;6.50;5.07;;;13.40;95.80;;;14.38;49.23;101492.16;4976427;28;99254;-51
2021/03/26 04:20:27;;;;;;;14.53;13.03;;;13.40;96.40;;;14.39;48.12;101483.25;4997497;27;97024;-52
2021/03/26 04:23:10;;;;;;;20.33;15.97;;;13.60;95.20;;;14.38;48.90;101478.03;4975235;28;99178;-51
2021/03/26 04:25:44;;;;;;;20.17;15.50;;;13.50;95.50;;;14.36;48.78;101487.84;5002307;27;102662;-52
2021/03/26 04:28:20;;;;;;;17.47;14.43;;;13.50;95.50;;;14.33;49.08;101486.16;4973977;28;98002;-56
2021/03/26 04:30:59;;;;;;;14.27;12.57;;;13.40;95.40;;;14.30;49.23;101494.22;4992331;28;97320;-55
2021/03/26 04:33:25;;;;;;;14.20;11.43;;;13.30;95.20;;;14.24;49.14;101486.50;4957855;28;97564;-56
2021/03/26 04:35:52;;;;;;;5.53;5.03;;;13.30;95.90;;;14.25;49.27;101482.94;4992105;28;98341;-50
2021/03/26 04:38:23;;;;;;;7.07;5.20;;;13.30;96.00;;;14.29;48.99;101487.19;4994223;27;97184;-52
2021/03/26 04:40:58;;;;;;;17.80;15.37;;;13.50;95.80;;;14.29;49.02;101473.91;4988100;28;99024;-50
2021/03/26 04:43:48;;;;;;;19.73;15.80;;;13.40;95.10;;;14.23;49.24;101484.78;4964508;28;97633;-51
2021/03/26 04:46:50;;;;;;;20.33;15.97;;;13.20;95.20;;;14.16;48.99;101485.91;4982182;28;100306;-49
2021/03/26 04:49:40;;;;;;;15.57;13.43;;;13.10;95.50;;;14.10;49.27;101480.84;4970046;28;98478;-53
2021/03/26 04:52:08;;;;;;;5.43;4.93;;;13.00;95.90;;;14.07;49.77;101478.31;4983088;28;97338;-50
2021/03/26 04:54:37;;;;;;;9.87;8.43;;;13.00;96.20;;;14.07;49.58;101481.84;4968167;28;97638;-51
2021/03/26 04:57:21;;;;;;;13.53;10.97;;;13.10;95.90;;;14.07;49.66;101476.53;4987986;27;97653;-49
2021/03/26 05:00:04;;;;;;;14.17;11.47;;;13.10;95.90;;;14.08;49.20;101474.75;4976331;27;97223;-49
2021/03/26 05:02:32;;;;;;;18.83;14.90;;;13.10;95.60;;;14.09;49.56;101474.69;4985857;28;97966;-53
2021/03/26 05:04:59;;;;;;;15.57;12.90;;;13.20;95.40;;;14.13;49.10;101478.94;4977573;28;97321;-50
2021/03/26 05:07:39;;;;;;;5.50;5.00;;;13.30;95.50;;;14.17;49.14;101474.38;4972118;28;97517;-49
2021/03/26 05:10:13;;;;;;;16.37;13.53;;;13.30;95.80;;;14.20;49.12;101475.16;4985883;28;99363;-50
2021/03/26 05:12:52;;;;;;;7.33;6.10;;;13.40;95.70;;;14.23;49.35;101479.47;4989672;28;97319;-49
2021/03/26 05:16:24;;;;;;;9.40;8.10;;;13.40;96.00;;;14.25;48.77;101485.56;4977492;28;102306;-55
2021/03/26 05:19:20;;;;;;;12.87;11.37;;;13.50;95.60;;;14.18;48.94;101481.44;4869015;28;101986;-53
2021/03/26 05:22:02;;;;;;;5.37;4.87;;;13.30;95.50;;;14.16;49.51;101477.94;4989100;28;99798;-55
2021/03/26 05:24:41;;;;;;;8.80;6.70;;;13.20;96.30;;;14.25;49.35;101477.63;4964529;28;103599;-55
2021/03/26 05:27:10;;;;;;;4.33;3.93;;;13.50;96.30;;;14.33;49.22;101472.91;4999912;27;96975;-58
2021/03/26 05:29:37;;;;;;;5.00;3.90;;;13.70;95.70;;;14.46;48.73;101476.81;4980879;27;99661;-52
2021/03/26 05:32:13;;;;;;;8.33;6.73;;;13.90;95.50;;;14.53;48.70;101478.31;4989007;28;97486;-52
2021/03/26 05:35:14;;;;;;;5.73;4.27;;;14.00;94.70;;;14.66;48.17;101483.16;4963983;28;97227;-50
2021/03/26 05:38:03;;;;;;;6.97;5.03;;;14.10;94.90;;;14.73;47.92;101471.34;4978271;28;97582;-53
2021/03/26 05:40:47;;;;;;;7.70;7.00;;;14.20;94.50;;;14.78;48.12;101469.38;4979619;27;101838;-52
2021/03/26 05:43:38;;;;;;;5.83;5.23;;;14.20;94.40;;;14.84;47.63;101480.63;4992134;27;97144;-49
2021/03/26 05:46:34;;;;;;;4.03;3.63;;;14.40;94.40;;;14.91;47.66;101477.72;4976325;27;100675;-52
2021/03/26 05:49:08;;;;;;;18.17;14.20;;;14.40;94.50;;;14.94;47.42;101483.78;4983793;27;96842;-48
2021/03/26 05:52:05;;;;;;;5.47;4.00;;;14.50;93.80;;;15.07;45.94;101486.81;4973922;28;99945;-48
2021/03/26 05:55:10;;;;;;;9.73;8.27;;;14.70;94.20;;;15.15;47.03;101482.88;4985803;28;103473;-48
2021/03/26 05:58:29;;;;;;;5.93;5.37;;;14.70;93.40;;;15.33;46.65;101485.69;4991330;27;97555;-50
2021/03/26 06:01:22;;;;;;;16.53;12.87;;;15.00;92.20;;;15.42;46.43;101480.84;4974691;28;99498;-56
2021/03/26 06:04:03;;;;;;;5.67;4.57;;;15.20;92.50;;;15.57;46.05;101487.31;4991686;28;97322;-47
2021/03/26 06:06:59;;;;;;;4.70;4.20;;;15.40;92.10;;;15.59;45.86;101490.78;4982058;28;108326;-47
2021/03/26 06:10:16;;;;;;;4.77;3.93;;;15.40;91.60;;;15.55;46.10;101483.84;4998686;27;97265;-48
2021/03/26 06:13:24;;;;;;;10.70;9.37;;;15.20;92.10;;;15.51;46.12;101484.06;4958118;28;98080;-46
2021/03/26 06:16:11;;;;;;;4.47;4.03;;;15.10;92.80;;;15.55;46.10;101486.50;4990909;28;104692;-47
2021/03/26 06:19:01;;;;;;;14.17;11.63;;;15.20;92.30;;;15.58;45.43;101489.03;4985282;28;102449;-46
2021/03/26 06:22:02;;;;;;;8.47;7.40;;;15.30;92.20;;;15.67;45.66;101490.47;4977299;27;97059;-46
2021/03/26 06:24:49;;;;;;;10.40;8.43;;;15.40;91.50;;;15.71;45.55;101492.94;4970024;28;97384;-48
2021/03/26 06:27:41;;;;;;;8.00;7.20;;;15.50;91.60;;;15.73;45.62;101496.38;4976176;28;97210;-47
2021/03/26 06:30:48;;;;;;;14.70;11.37;;;15.50;92.00;;;15.66;45.63;101491.41;4965071;27;96982;-47
2021/03/26 06:34:08;;;;;;;5.77;5.17;;;15.30;92.60;;;15.52;45.54;101491.97;4965759;28;97062;-46
2021/03/26 06:36:53;;;;;;;10.60;9.40;;;15.20;92.60;;;15.46;46.36;101482.44;4981535;28;97600;-48
2021/03/26 06:40:08;;;;;;;16.70;14.90;;;15.00;92.80;;;15.42;46.31;101482.66;5002876;27;103231;-49
2021/03/26 06:43:01;;;;;;;5.53;4.97;;;15.00;93.00;;;15.41;46.42;101486.25;4955794;28;104518;-46
2021/03/26 06:45:52;;;;;;;17.17;14.03;;;14.90;93.30;;;15.47;46.46;101485.97;4984632;28;98113;-49
2021/03/26 06:48:48;;;;;;;6.27;5.30;;;15.10;92.80;;;15.51;45.84;101474.28;4959481;28;97438;-50
2021/03/26 06:51:26;;;;;;;5.20;4.70;;;15.20;92.70;;;15.58;46.26;101475.75;4979102;28;98198;-47
2021/03/26 06:54:48;;;;;;;5.30;4.80;;;15.30;92.50;;;15.74;45.72;101481.28;4971731;28;97490;-46
2021/03/26 06:57:55;;;;;;;21.37;16.43;;;15.60;91.50;;;15.82;45.42;101475.63;4955296;28;97144;-48
2021/03/26 07:00:34;;;;;;;13.40;11.90;;;15.70;91.40;;;15.91;44.97;101472.53;4984415;28;96795;-47
2021/03/26 07:03:48;;;;;;;31.33;24.70;;;15.90;91.00;;;15.81;45.72;101476.56;4964197;27;97523;-47
2021/03/26 07:07:01;;;;;;;4.80;4.27;;;15.70;91.70;;;15.82;45.25;101472.97;4987465;28;99556;-48
2021/03/26 07:09:51;;;;;;;5.37;4.73;;;15.50;91.50;;;15.83;45.35;101464.06;4985268;27;97399;-47
2021/03/26 07:12:36;;;;;;;14.00;12.30;;;15.60;91.80;;;15.95;45.08;101469.69;4983280;27;97378;-47
2021/03/26 07:15:10;;;;;;;5.83;5.33;;;15.90;91.00;;;16.03;44.89;101466.69;4977522;28;104300;-46
2021/03/26 07:17:53;;;;;;;8.13;7.17;;;16.00;91.10;;;16.08;44.62;101463.81;4982401;28;98226;-47
2021/03/26 07:20:52;;;;;;;10.23;8.70;;;16.00;90.90;;;16.14;44.69;101464.41;4966878;27;98877;-47
2021/03/26 07:23:36;;;;;;;11.50;10.30;;;16.10;90.60;;;16.01;44.96;101463.22;4987383;28;97300;-47
2021/03/26 07:26:50;;;;;;;5.07;4.57;;;15.80;91.60;;;16.01;45.03;101460.56;4973102;27;101744;-47
2021/03/26 07:29:31;;;;;;;5.10;4.20;;;15.90;91.20;;;16.09;44.89;101461.09;4966671;28;97232;-49
2021/03/26 07:32:17;;;;;;;9.63;8.47;;;16.00;91.00;;;16.20;44.50;101458.81;4980444;27;97114;-49
2021/03/26 07:35:38;;;;;;;10.93;9.37;;;16.20;90.70;;;16.29;44.64;101463.69;4995064;27;96847;-48
2021/03/26 07:38:39;;;;;;;21.27;17.20;;;16.30;90.50;;;16.18;45.04;101465.09;4960110;28;101704;-47
2021/03/26 07:41:20;;;;;;;13.03;11.20;;;16.10;91.70;;;15.96;46.12;101459.91;4971715;28;97385;-47
2021/03/26 07:44:37;;;;;;;20.20;16.47;;;15.80;92.00;;;15.95;45.37;101459.06;4988640;28;96913;-46
2021/03/26 07:48:03;;;;;;;31.17;24.43;;;15.70;92.70;;;15.77;46.58;101460.75;4973608;28;96962;-48
2021/03/26 07:50:58;;;;;;;18.63;15.73;;;15.50;93.10;;;15.56;47.12;101461.66;4975977;27;103445;-46
2021/03/26 07:53:51;;;;;;;39.00;31.63;;;15.20;93.10;;;15.30;48.57;101464.56;4964968;28;102537;-46
2021/03/26 07:56:56;;;;;;;48.37;37.00;;;15.00;94.00;;;14.80;50.13;101451.59;4975481;28;99208;-46
2021/03/26 07:59:39;;;;;;;20.23;14.80;;;14.40;95.40;;;14.83;48.49;101448.81;4985083;27;97608;-47
2021/03/26 08:02:48;;;;;;;42.63;33.87;;;14.40;95.10;;;14.57;50.63;101453.38;4970772;27;98287;-49
2021/03/26 08:05:43;;;;;;;41.90;34.77;;;14.30;95.40;;;14.50;50.09;101451.91;4973855;27;97425;-47
2021/03/26 08:08:46;;;;;;;46.90;35.20;;;14.10;96.20;;;14.46;50.77;101444.97;4983700;28;99137;-46
2021/03/26 08:11:44;;;;;;;42.40;33.47;;;14.10;96.50;;;14.47;50.57;101441.41;4967695;27;96935;-47
2021/03/26 08:14:31;;;;;;;18.70;14.20;;;14.20;95.60;;;14.57;49.85;101442.75;4977792;27;97134;-46
2021/03/26 08:17:19;;;;;;;16.23;14.23;;;14.30;95.50;;;14.65;49.55;101437.16;4990736;27;97377;-48
2021/03/26 08:20:10;;;;;;;19.00;14.33;;;14.40;95.30;;;14.82;48.40;101447.94;4966235;28;97029;-47
2021/03/26 08:23:10;;;;;;;21.80;17.43;;;14.60;94.70;;;14.80;50.18;101446.28;4973179;28;97583;-48
2021/03/26 08:25:58;;;;;;;41.10;33.30;;;14.60;95.20;;;14.59;50.77;101440.91;4958449;28;101946;-49
2021/03/26 08:28:27;;;;;;;30.40;23.73;;;14.40;95.70;;;14.61;50.08;101442.63;4961768;28;104458;-47
2021/03/26 08:31:23;;;;;;;37.17;29.63;;;14.30;95.70;;;14.61;50.60;101443.53;4987025;28;97029;-50
2021/03/26 08:34:18;;;;;;;40.33;29.60;;;14.40;95.70;;;14.57;50.70;101445.41;4993790;28;97938;-48
2021/03/26 08:37:10;;;;;;;26.83;23.37;;;14.40;95.80;;;14.66;49.25;101441.53;4980790;28;103560;-47
2021/03/26 08:39:48;;;;;;;35.53;28.30;;;14.40;95.10;;;14.58;50.74;101449.78;4978355;28;101529;-46
2021/03/26 08:42:24;;;;;;;29.97;24.80;;;14.40;95.60;;;14.45;51.42;101452.97;4976598;27;97497;-48
2021/03/26 08:44:54;;;;;;;24.33;19.63;;;14.30;95.90;;;14.57;49.75;101442.75;4990351;27;98817;-47
2021/03/26 08:47:38;;;;;;;11.17;9.07;;;14.40;95.40;;;14.85;48.75;101441.63;4982333;28;103422;-50
2021/03/26 08:51:07;;;;;;;30.07;23.63;;;14.60;94.50;;;14.86;50.08;101443.38;4990020;28;97140;-48
2021/03/26 08:54:28;;;;;;;24.00;19.47;;;14.70;95.20;;;14.91;48.77;101441.41;4918492;28;98361;-51
2021/03/26 08:57:47;;;;;;;36.97;28.63;;;14.70;94.50;;;14.84;49.48;101434.59;4931079;28;97252;-48
2021/03/26 09:01:04;;;;;;;26.53;21.77;;;14.70;94.80;;;15.02;48.46;101438.28;4980122;28;100563;-48
2021/03/26 09:03:59;;;;;;;31.63;25.67;;;14.80;94.10;;;15.00;48.53;101425.06;4977078;28;102230;-46
2021/03/26 09:07:14;;;;;;;31.40;25.93;;;14.80;94.30;;;15.11;49.24;101433.47;4988552;27;97424;-47
2021/03/26 09:10:07;;;;;;;36.53;28.50;;;15.00;94.00;;;15.07;48.51;101431.88;4977705;28;96968;-47
2021/03/26 09:12:47;;;;;;;38.60;29.50;;;14.90;94.60;;;15.03;50.04;101434.69;4994189;28;102718;-48
2021/03/26 09:15:34;;;;;;;41.13;28.70;;;14.90;95.10;;;14.68;50.67;101429.06;4972700;28;97598;-48
2021/03/26 09:18:39;;;;;;;37.73;27.57;;;14.50;95.60;;;14.92;49.87;101437.81;4962336;28;96841;-50
2021/03/26 09:21:40;;;;;;;35.27;26.00;;;14.80;94.90;;;14.92;50.26;101434.31;4964340;28;97367;-50
2021/03/26 09:24:24;;;;;;;32.50;24.57;;;14.80;95.00;;;14.92;49.32;101435.16;4940114;28;98984;-50
2021/03/26 09:27:15;;;;;;;35.57;25.13;;;14.80;94.60;;;15.03;49.73;101429.38;4978390;28;97995;-48
2021/03/26 09:30:15;;;;;;;34.20;23.87;;;14.90;94.80;;;15.02;49.42;101433.84;4975330;28;101232;-49
2021/03/26 09:32:46;;;;;;;30.20;24.90;;;14.90;94.70;;;14.98;49.61;101426.94;4984463;28;96973;-49
2021/03/26 09:35:24;;;;;;;32.30;24.50;;;14.90;94.70;;;15.04;49.19;101425.78;4976289;27;98747;-48
2021/03/26 09:38:05;;;;;;;29.20;24.67;;;14.90;94.50;;;15.07;49.16;101421.25;4985891;27;97131;-47
2021/03/26 09:41:01;;;;;;;28.23;22.43;;;15.00;94.20;;;15.15;48.40;101424.41;4978767;28;97471;-50
2021/03/26 09:43:45;;;;;;;27.40;20.47;;;15.00;94.40;;;15.17;48.09;101417.25;4951802;28;98634;-47
2021/03/26 09:46:19;;;;;;;22.93;16.60;;;15.10;93.60;;;15.38;47.29;101414.59;4978445;28;97656;-48
2021/03/26 09:48:54;;;;;;;28.87;18.87;;;15.30;93.20;;;15.33;46.38;101403.28;4989689;28;97483;-51
2021/03/26 09:51:23;;;;;;;18.13;14.40;;;15.30;92.40;;;15.44;46.58;101401.03;4974004;28;97433;-49
2021/03/26 09:53:51;;;;;;;24.17;17.07;;;15.40;92.50;;;15.55;46.75;101398.75;4986872;28;99195;-48
2021/03/26 09:56:42;;;;;;;19.03;13.37;;;15.50;92.30;;;15.53;45.28;101397.97;4974950;28;97817;-47
2021/03/26 09:59:36;;;;;;;20.60;14.57;;;15.50;91.10;;;15.45;44.69;101394.78;4984724;27;99353;-47
2021/03/26 10:02:47;;;;;;;23.93;15.17;;;15.50;90.50;;;15.48;45.67;101389.34;4975618;28;96945;-48
2021/03/26 10:05:32;;;;;;;16.90;13.77;;;15.40;90.80;;;15.58;45.10;101395.09;4971154;28;97808;-49
2021/03/26 10:11:32;;;;;;;22.03;15.10;;;15.40;91.40;;;15.57;46.17;101372.97;4970621;27;97222;-49
2021/03/26 10:14:03;;;;;;;19.63;15.87;;;15.50;91.50;;;15.53;44.96;101371.38;4980125;28;97141;-48
2021/03/26 10:16:41;;;;;;;19.13;15.73;;;15.50;91.10;;;15.60;45.70;101372.84;4977556;28;97480;-49
2021/03/26 10:19:14;;;;;;;16.57;13.40;;;15.60;91.60;;;15.74;45.99;101370.44;4989147;28;97043;-48
2021/03/26 10:21:52;;;;;;;17.60;14.57;;;15.70;91.70;;;15.83;45.70;101369.16;4958809;28;98969;-48
2021/03/26 10:24:33;;;;;;;13.10;11.07;;;15.80;91.50;;;15.90;45.04;101359.94;4987463;28;97328;-50
2021/03/26 10:27:18;;;;;;;15.23;10.10;;;15.90;90.70;;;15.87;43.96;101359.22;4961693;28;103665;-48
2021/03/26 10:29:53;;;;;;;12.20;8.53;;;15.90;89.30;;;15.93;43.63;101362.50;4983117;28;98116;-50
2021/03/26 10:32:34;;;;;;;16.87;10.27;;;16.00;90.00;;;15.95;44.69;101346.44;4974951;27;99855;-48
2021/03/26 10:35:24;;;;;;;11.50;9.03;;;15.90;89.70;;;16.01;43.53;101346.16;4980676;28;97413;-48
2021/03/26 10:38:05;;;;;;;17.50;10.80;;;16.00;89.40;;;16.07;43.94;101340.53;4958507;28;99022;-48
2021/03/26 10:40:56;;;;;;;12.63;9.67;;;16.10;89.10;;;16.10;42.90;101336.88;4999262;27;104505;-48
2021/03/26 10:43:40;;;;;;;15.60;10.23;;;16.10;88.10;;;16.06;43.55;101328.19;4981020;27;100619;-49
2021/03/26 10:46:20;;;;;;;15.30;10.17;;;16.10;89.10;;;16.14;42.93;101331.31;4971743;28;97514;-48
2021/03/26 10:49:09;;;;;;;13.20;9.13;;;16.10;87.90;;;16.26;43.05;101320.09;4972360;28;99127;-48
2021/03/26 10:51:53;;;;;;;15.07;9.33;;;16.30;87.20;;;16.29;42.37;101319.94;4973866;27;101164;-50
2021/03/26 10:54:59;;;;;;;13.93;9.60;;;16.40;86.80;;;16.35;42.00;101309.00;4980635;27;96952;-50
2021/03/26 10:57:57;;;;;;;13.47;8.50;;;16.40;86.80;;;16.54;42.72;101310.72;4916135;28;96936;-50
2021/03/26 11:00:41;;;;;;;8.10;6.57;;;16.60;87.60;;;16.69;42.45;101302.00;4958987;28;97565;-48
2021/03/26 11:03:16;;;;;;;13.43;9.23;;;16.80;87.00;;;16.82;42.13;101296.91;4974179;28;99016;-48
2021/03/26 11:05:52;;;;;;;13.07;8.63;;;17.00;86.00;;;16.96;43.28;101302.38;4983148;28;99856;-47
2021/03/26 11:08:34;;;;;;;11.70;6.83;;;17.20;86.90;;;17.01;41.13;101288.81;4954373;28;96975;-47
2021/03/26 11:11:19;;;;;;;10.53;7.63;;;17.30;83.80;;;17.01;42.00;101286.16;4997222;27;97241;-49
2021/03/26 11:14:16;;;;;;;9.00;7.63;;;17.20;83.00;;;17.14;42.27;101284.56;4997384;27;98607;-47
2021/03/26 11:17:10;;;;;;;10.77;7.13;;;17.30;85.50;;;17.23;41.37;101274.28;4976650;28;103142;-50